Latest Weather Observations for Montague Island

IDN60901

Issued at 8:15 pm EST Monday 28 July 2014 (issued every 10 minutes, with the page automatically refreshed every 10 minutes)

About weather observations | Map of Canberra area stations | Latest observations for Canberra area | Other Formats
Station Details ID: 069017 Name: MONTAGUE ISLAND LIGHTHOUSE Lat: -36.25 Lon: 150.23 Height: 52.0 m
Data from the previous 72 hours. | See also: Recent months at Montague Island
Date/Time
EST
Tmp

°C
App
Tmp
°C
Dew
Point
°C
Rel
Hum
%
Delta-T

°C
Wind Press
QNH
hPa
Press
MSL
hPa
Rain
since
9 am
mm
Dir
 
Spd
km/h
Gust
km/h
Spd
kts
Gust
kts
28/08:00pm 15.1 12.7 8.6 65 3.3 NNW 11 15 6 8 1015.8 1015.8 0.0
28/07:30pm 15.6 13.2 8.8 64 3.5 NNW 11 17 6 9 1015.9 - 0.0
28/07:00pm 16.0 11.2 7.2 56 4.4 NW 22 30 12 16 1015.7 1015.7 0.0
28/06:30pm 15.9 12.8 10.4 70 2.9 N 17 19 9 10 1015.5 - 0.0
28/06:00pm 15.9 12.2 9.3 65 3.4 N 19 22 10 12 1015.2 1015.2 0.0
28/05:30pm 16.1 11.3 8.8 62 3.7 N 24 28 13 15 1015.2 - 0.0
28/05:00pm 16.3 12.4 9.5 64 3.5 NNE 20 28 11 15 1015.2 1015.2 0.0
28/04:30pm 16.1 11.8 9.3 64 3.5 N 22 32 12 17 1015.3 - 0.0
28/04:00pm 16.2 10.8 8.2 59 4.1 N 26 32 14 17 1015.1 1015.1 0.0
28/03:30pm 16.2 11.2 7.9 58 4.2 NNE 24 28 13 15 1015.2 - 0.0
28/03:00pm 16.0 11.5 8.5 61 3.8 NNE 22 28 12 15 1015.4 1015.4 0.0
28/02:30pm 16.4 11.0 6.5 52 4.9 N 24 30 13 16 1015.5 - 0.0
28/02:00pm 16.8 12.3 6.3 50 5.1 NNE 19 24 10 13 1015.4 1015.4 0.0
28/01:30pm 17.5 13.1 6.4 48 5.5 N 19 24 10 13 1015.7 - 0.0
28/01:00pm 16.6 12.5 6.4 51 5.0 N 17 24 9 13 1016.3 1016.3 0.0
28/12:30pm 16.8 13.3 7.2 53 4.8 N 15 19 8 10 1016.9 - 0.0
28/12:00pm 17.7 15.2 6.6 48 5.5 NNW 9 13 5 7 1017.5 1017.5 0.0
28/11:30am 18.0 14.5 3.5 38 6.8 WNW 11 17 6 9 1018.0 - 0.0
28/11:00am 17.8 15.0 5.1 43 6.1 WNW 9 13 5 7 1018.3 1018.3 0.0
28/10:30am 16.9 13.3 5.2 46 5.6 W 13 17 7 9 1018.7 - 0.0
28/10:00am 15.9 11.8 4.6 47 5.3 WNW 15 17 8 9 1018.7 1018.7 0.0
28/09:30am 15.0 11.0 4.7 50 4.8 WNW 15 19 8 10 1018.9 - 0.0
28/09:00am 14.2 10.5 4.5 52 4.5 WNW 13 17 7 9 1018.9 1018.9 0.0
28/08:30am 13.8 9.3 4.1 52 4.4 W 17 20 9 11 1018.9 - 0.0
28/08:00am 12.8 7.8 3.7 54 4.1 W 19 22 10 12 1018.9 1018.9 0.0
28/07:30am 12.0 7.1 4.2 59 3.5 W 19 22 10 12 1018.9 - 0.0
28/07:00am 11.3 5.3 3.6 59 3.4 W 24 30 13 16 1018.9 1018.9 0.0
28/06:30am 10.9 5.4 4.1 63 3.0 W 22 28 12 15 1018.8 - 0.0
28/06:00am 11.2 5.8 4.4 63 3.1 W 22 26 12 14 1018.3 1018.3 0.0
28/05:30am 11.3 5.2 5.0 65 2.9 W 26 33 14 18 1018.2 - 0.0
28/05:00am 11.4 7.2 5.9 69 2.6 WNW 17 24 9 13 1018.2 1018.2 0.0
28/04:30am 11.6 8.6 7.7 77 1.9 WNW 13 17 7 9 1018.5 - 0.0
28/04:00am 11.5 9.0 8.4 81 1.5 WNW 11 17 6 9 1018.6 1018.6 0.0
28/03:30am 11.6 10.0 8.8 83 1.4 W 7 9 4 5 1018.5 - 0.0
28/03:00am 11.5 8.6 8.2 80 1.6 W 13 19 7 10 1018.7 1018.7 0.0
28/02:30am 11.9 8.7 8.6 80 1.6 W 15 20 8 11 1018.9 - 0.0
28/02:00am 12.3 9.6 8.8 79 1.7 NW 13 15 7 8 1018.5 1018.5 0.0
28/01:30am 12.5 9.8 9.0 79 1.8 WNW 13 15 7 8 1019.0 - 0.0
28/01:00am 12.9 11.0 9.0 77 2.0 NW 9 11 5 6 1018.9 1018.9 0.0
28/12:30am 12.9 11.3 8.8 76 2.1 WNW 7 9 4 5 1019.3 - 0.0
28/12:00am 13.2 10.9 8.9 75 2.2 WNW 11 15 6 8 1020.0 1020.0 0.0
 
Date/Time
EST
Tmp

°C
App
Tmp
°C
Dew
Point
°C
Rel
Hum
%
Delta-T

°C
Wind Press
QNH
hPa
Press
MSL
hPa
Rain
since
9 am
mm
Dir
 
Spd
km/h
Gust
km/h
Spd
kts
Gust
kts
27/11:30pm 13.6 10.0 8.2 70 2.7 NNW 17 19 9 10 1020.0 - 0.0
27/11:00pm 13.6 10.9 8.9 73 2.4 N 13 15 7 8 1020.1 1020.1 0.0
27/10:30pm 14.0 11.4 9.4 74 2.4 NW 13 17 7 9 1020.8 - 0.0
27/10:00pm 14.5 11.5 9.3 71 2.7 NNW 15 20 8 11 1021.0 1021.0 0.0
27/09:30pm 14.8 10.5 9.2 69 2.9 N 22 26 12 14 1020.8 - 0.0
27/09:00pm 14.8 13.4 10.8 77 2.1 NNW 9 20 5 11 1020.8 1020.8 0.0
27/08:30pm 14.7 13.2 10.5 76 2.2 N 9 11 5 6 1020.6 - 0.0
27/08:00pm 14.6 12.6 10.0 74 2.4 NW 11 15 6 8 1020.8 1020.8 0.0
27/07:30pm 15.6 13.2 8.6 63 3.6 NNE 11 15 6 8 1020.8 - 0.0
27/07:00pm 15.5 13.5 8.5 63 3.5 NE 9 13 5 7 1020.9 1020.9 0.0
27/06:30pm 15.3 12.9 8.5 64 3.5 E 11 13 6 7 1021.0 - 0.0
27/06:00pm 15.2 12.8 8.7 65 3.3 E 11 15 6 8 1020.6 1020.6 0.0
27/05:30pm 15.4 12.6 8.4 63 3.5 ESE 13 15 7 8 1020.4 - 0.0
27/05:00pm 15.5 13.3 8.0 61 3.8 ESE 9 13 5 7 1020.6 1020.6 0.0
27/04:30pm 15.7 13.6 8.4 62 3.7 ESE 9 13 5 7 1020.4 - 0.0
27/04:00pm 15.7 13.2 8.0 60 3.9 SE 11 15 6 8 1020.2 1020.2 0.0
27/03:30pm 16.0 13.7 7.5 57 4.2 ESE 9 13 5 7 1020.3 - 0.0
27/03:00pm 16.3 13.2 8.8 61 3.8 SE 15 19 8 10 1020.3 1020.3 0.0
27/02:30pm 16.5 12.8 8.0 57 4.3 SSE 17 20 9 11 1020.3 - 0.0
27/02:00pm 16.5 13.6 8.2 58 4.2 SE 13 17 7 9 1020.3 1020.3 0.0
27/01:30pm 16.7 14.1 7.9 56 4.5 SSE 11 15 6 8 1020.6 - 0.0
27/01:00pm 17.3 14.5 7.1 51 5.1 S 11 17 6 9 1021.0 1021.0 0.0
27/12:30pm 17.2 14.1 7.3 52 5.0 SSW 13 17 7 9 1021.3 - 0.0
27/12:00pm 16.7 14.1 5.9 49 5.2 SSW 9 13 5 7 1021.8 1021.8 0.0
27/11:30am 16.8 14.1 5.7 48 5.4 SW 9 13 5 7 1022.4 - 0.0
27/11:00am 16.6 14.3 5.9 49 5.2 SW 7 11 4 6 1022.9 1022.9 0.0
27/10:30am 16.9 14.7 6.4 50 5.2 W 7 11 4 6 1023.3 - 0.0
27/10:00am 16.3 14.5 8.0 58 4.2 W 7 11 4 6 1023.7 1023.7 0.0
27/09:30am 15.1 13.7 7.2 59 3.9 NW 4 6 2 3 1023.6 - 0.0
27/09:00am 15.2 13.7 7.0 58 4.0 WNW 4 6 2 3 1023.6 1023.6 -
27/08:30am 14.5 12.4 6.8 60 3.8 WNW 7 11 4 6 1023.3 - -
27/08:00am 14.1 11.5 7.9 66 3.1 W 11 17 6 9 1023.0 1023.0 -
27/07:30am 12.2 9.0 6.9 70 2.5 W 13 17 7 9 1022.6 - -
27/07:00am 12.5 9.0 7.0 69 2.6 W 15 17 8 9 1022.5 1022.5 -
27/06:30am 12.2 8.2 6.7 69 2.6 W 17 20 9 11 1022.2 - -
27/06:00am 12.3 8.8 7.0 70 2.5 W 15 20 8 11 1021.9 1021.9 -
27/05:30am 12.5 8.4 6.3 66 2.9 W 17 20 9 11 1021.5 - -
27/05:00am 12.4 7.8 6.5 67 2.8 W 20 24 11 13 1021.4 1021.4 -
27/04:30am 12.3 8.4 7.2 71 2.5 W 17 20 9 11 1021.4 - -
27/04:00am 12.4 9.1 6.2 66 2.9 W 13 17 7 9 1021.5 1021.5 -
27/03:30am 12.5 8.4 6.1 65 3.0 W 17 22 9 12 1021.6 - -
27/03:00am 12.6 8.0 5.8 63 3.2 W 19 22 10 12 1021.6 1021.6 -
27/02:30am 12.7 8.0 6.1 64 3.1 W 20 26 11 14 1021.5 - -
27/02:00am 12.6 8.2 6.4 66 2.9 W 19 22 10 12 1021.7 1021.7 -
27/12:00am 13.6 7.7 7.4 66 3.0 W 28 33 15 18 1021.8 1021.8 0.0
 
Date/Time
EST
Tmp

°C
App
Tmp
°C
Dew
Point
°C
Rel
Hum
%
Delta-T

°C
Wind Press
QNH
hPa
Press
MSL
hPa
Rain
since
9 am
mm
Dir
 
Spd
km/h
Gust
km/h
Spd
kts
Gust
kts
26/11:30pm 13.5 9.8 8.1 70 2.7 WNW 17 22 9 12 1021.9 - 0.0
26/11:00pm 13.4 9.8 8.5 72 2.4 WNW 17 19 9 10 1022.0 1022.0 0.0
26/10:30pm 13.8 10.4 9.3 74 2.3 W 17 20 9 11 1022.2 - 0.0
26/10:00pm 14.0 11.1 9.6 75 2.3 W 15 19 8 10 1022.1 1022.1 0.0
26/09:30pm 14.0 11.5 9.8 76 2.2 W 13 17 7 9 1022.0 - 0.0
26/09:00pm 14.8 13.3 10.6 76 2.2 WSW 9 11 5 6 1021.9 1021.9 0.0
26/08:30pm 14.9 12.6 10.5 75 2.3 S 13 17 7 9 1021.9 - 0.0
26/08:00pm 14.9 11.4 10.3 74 2.4 S 19 20 10 11 1021.8 1021.8 0.0
26/07:30pm 15.4 11.5 10.8 74 2.4 SW 22 26 12 14 1021.8 - 0.0
26/07:00pm 15.8 12.5 9.7 67 3.2 S 17 20 9 11 1021.8 1021.8 0.0
26/06:30pm 15.8 12.8 9.2 65 3.4 S 15 17 8 9 1021.5 - 0.0
26/06:00pm 15.7 12.9 8.7 63 3.6 S 13 15 7 8 1021.0 1021.0 0.0
26/05:30pm 15.8 13.3 8.1 60 3.9 SSW 11 13 6 7 1020.7 - 0.0
26/05:00pm 16.0 13.3 7.2 56 4.4 SW 11 13 6 7 1020.4 1020.4 0.0
26/04:30pm 16.4 13.3 7.1 54 4.6 SSW 13 15 7 8 1020.0 - 0.0
26/04:00pm 16.6 14.6 7.0 53 4.8 SW 7 11 4 6 1019.8 1019.8 0.0
26/03:30pm 17.3 14.6 7.4 52 5.0 SSW 11 17 6 9 1019.7 - 0.0
26/03:00pm 17.4 13.1 7.7 53 4.9 S 20 24 11 13 1019.5 1019.5 0.0
26/02:30pm 16.9 13.2 7.8 55 4.6 SSE 17 20 9 11 1019.5 - 0.0
26/02:00pm 16.8 13.9 8.0 56 4.5 SE 13 15 7 8 1019.4 1019.4 0.0
26/01:30pm 17.6 14.3 6.5 48 5.5 S 13 17 7 9 1019.4 - 0.0
26/01:00pm 17.9 14.7 6.7 48 5.6 SSW 13 17 7 9 1019.8 1019.8 0.0
26/12:30pm 18.5 14.7 5.7 43 6.3 SW 15 20 8 11 1020.3 - 0.0
26/12:00pm 18.7 14.1 8.1 50 5.4 SW 22 26 12 14 1020.8 1020.8 0.0
26/11:30am 16.9 14.3 7.8 55 4.6 SSW 11 17 6 9 1021.3 - 0.0
26/11:00am 16.4 14.8 7.9 57 4.3 WSW 6 7 3 4 1021.8 1021.8 0.0
26/10:30am 15.8 12.8 7.8 59 4.0 W 13 17 7 9 1021.8 - 0.0
26/10:00am 15.0 11.2 6.0 55 4.3 WNW 15 19 8 10 1022.1 1022.1 0.0
26/09:30am 15.2 11.2 6.5 56 4.2 WNW 17 22 9 12 1022.3 - 0.0
26/09:00am 14.3 10.0 7.1 62 3.5 NW 19 22 10 12 1022.1 1022.1 0.0
26/08:30am 13.4 9.7 6.5 63 3.3 WNW 15 20 8 11 1022.0 - 0.0
26/08:00am 14.1 10.2 6.9 62 3.5 NW 17 24 9 13 1021.8 1021.8 0.0
26/07:30am 13.3 9.0 6.9 65 3.1 WNW 19 26 10 14 1021.5 - 0.0
26/07:00am 13.3 9.1 7.3 67 2.9 WNW 19 24 10 13 1021.2 1021.2 0.0
26/06:30am 13.1 9.8 8.0 71 2.5 NW 15 19 8 10 1020.8 - 0.0
26/06:00am 13.5 9.9 6.8 64 3.2 NW 15 19 8 10 1020.8 1020.8 0.0
26/05:30am 13.3 9.9 5.9 61 3.5 NW 13 17 7 9 1020.6 - 0.0
26/05:00am 13.5 10.8 5.7 59 3.7 NW 9 11 5 6 1020.6 1020.6 0.0
26/04:30am 14.1 12.0 6.0 58 3.9 WSW 6 9 3 5 1020.5 - 0.0
26/04:00am 14.0 10.5 5.6 57 4.0 W 13 17 7 9 1020.5 1020.5 0.0
26/03:30am 13.7 9.3 6.6 62 3.4 W 19 22 10 12 1020.5 - 0.0
26/03:00am 13.8 9.6 5.9 59 3.7 WNW 17 28 9 15 1020.5 1020.5 0.0
26/02:30am 13.2 8.2 6.3 63 3.3 NW 22 28 12 15 1020.5 - 0.0
26/02:00am 13.9 8.0 5.8 58 3.8 WNW 26 33 14 18 1020.7 1020.7 0.0
26/01:30am 13.8 7.3 6.4 61 3.6 WNW 30 37 16 20 1020.5 - 0.0
26/01:00am 13.8 7.7 6.4 61 3.5 W 28 35 15 19 1020.5 1020.5 0.0
26/12:30am 14.2 6.7 6.3 59 3.8 WNW 35 43 19 23 1020.4 - 0.0
26/12:00am 13.9 8.0 6.0 59 3.8 WNW 26 32 14 17 1020.5 1020.5 0.0
 
Date/Time
EST
Tmp

°C
App
Tmp
°C
Dew
Point
°C
Rel
Hum
%
Delta-T

°C
Wind Press
QNH
hPa
Press
MSL
hPa
Rain
since
9 am
mm
Dir
 
Spd
km/h
Gust
km/h
Spd
kts
Gust
kts
25/11:30pm 14.7 8.0 5.5 54 4.4 WNW 30 35 16 19 1020.6 - 0.0
25/11:00pm 14.7 9.3 6.5 58 4.0 WNW 24 33 13 18 1020.7 1020.7 0.0
25/10:30pm 15.9 9.0 7.1 56 4.4 WNW 33 43 18 23 1020.3 - 0.0
25/10:00pm 14.6 10.4 7.6 63 3.5 WNW 19 26 10 14 1020.4 1020.4 0.0
25/09:30pm 15.4 11.5 8.6 64 3.5 WNW 19 22 10 12 1020.3 - 0.0
25/09:00pm 15.8 11.7 10.1 69 3.0 WNW 22 24 12 13 1020.1 1020.1 0.0
25/08:30pm 15.3 12.2 12.2 82 1.7 WNW 20 24 11 13 1019.8 - 0.0

Latest Capital City Observations: Canberra | Sydney | Melbourne | Brisbane | Adelaide | Perth | Hobart | Darwin

Other Formats:

Comma delimited format used in spreadsheet applications
http://www.bom.gov.au/fwo/IDN60903/IDN60903.94939.axf

JavaScript Object Notation format (JSON) in row-major order
http://www.bom.gov.au/fwo/IDN60903/IDN60903.94939.json